sensor_id;sensor_type;location;lat;lon;timestamp;temperature;humidity
64670;DHT22;51080;51.690;5.174;2022-08-25T00:05:20;21.30;69.10
64670;DHT22;51080;51.690;5.174;2022-08-25T00:11:13;21.20;69.30
64670;DHT22;51080;51.690;5.174;2022-08-25T00:16:58;21.20;69.50
64670;DHT22;51080;51.690;5.174;2022-08-25T00:22:43;21.10;69.70
64670;DHT22;51080;51.690;5.174;2022-08-25T00:28:28;21.00;69.70
64670;DHT22;51080;51.690;5.174;2022-08-25T00:34:17;20.90;69.80
64670;DHT22;51080;51.690;5.174;2022-08-25T00:40:06;20.90;70.00
64670;DHT22;51080;51.690;5.174;2022-08-25T00:45:50;20.80;70.10
64670;DHT22;51080;51.690;5.174;2022-08-25T00:51:42;20.80;70.10
64670;DHT22;51080;51.690;5.174;2022-08-25T00:57:34;20.70;70.30
64670;DHT22;51080;51.690;5.174;2022-08-25T01:03:20;20.70;70.50
64670;DHT22;51080;51.690;5.174;2022-08-25T01:09:06;20.60;70.60
64670;DHT22;51080;51.690;5.174;2022-08-25T01:14:52;20.60;70.70
64670;DHT22;51080;51.690;5.174;2022-08-25T01:20:37;20.60;70.90
64670;DHT22;51080;51.690;5.174;2022-08-25T01:26:24;20.50;71.00
64670;DHT22;51080;51.690;5.174;2022-08-25T01:32:12;20.50;70.90
64670;DHT22;51080;51.690;5.174;2022-08-25T01:38:03;20.50;71.20
64670;DHT22;51080;51.690;5.174;2022-08-25T01:43:47;20.50;71.10
64670;DHT22;51080;51.690;5.174;2022-08-25T01:49:32;20.40;71.10
64670;DHT22;51080;51.690;5.174;2022-08-25T01:55:17;20.30;71.40
64670;DHT22;51080;51.690;5.174;2022-08-25T02:01:09;20.20;71.40
64670;DHT22;51080;51.690;5.174;2022-08-25T02:06:54;20.10;71.60
64670;DHT22;51080;51.690;5.174;2022-08-25T02:12:39;20.10;71.50
64670;DHT22;51080;51.690;5.174;2022-08-25T02:18:26;20.00;71.60
64670;DHT22;51080;51.690;5.174;2022-08-25T02:24:11;20.00;71.50
64670;DHT22;51080;51.690;5.174;2022-08-25T02:29:55;19.90;71.30
64670;DHT22;51080;51.690;5.174;2022-08-25T02:35:41;20.00;70.90
64670;DHT22;51080;51.690;5.174;2022-08-25T02:41:25;19.90;70.90
64670;DHT22;51080;51.690;5.174;2022-08-25T02:47:09;20.00;70.50
64670;DHT22;51080;51.690;5.174;2022-08-25T02:52:54;20.00;70.20
64670;DHT22;51080;51.690;5.174;2022-08-25T02:58:40;20.00;70.30
64670;DHT22;51080;51.690;5.174;2022-08-25T03:04:25;20.00;70.20
64670;DHT22;51080;51.690;5.174;2022-08-25T03:10:14;20.00;70.00
64670;DHT22;51080;51.690;5.174;2022-08-25T03:15:59;20.00;69.60
64670;DHT22;51080;51.690;5.174;2022-08-25T03:21:44;20.00;69.40
64670;DHT22;51080;51.690;5.174;2022-08-25T03:27:28;20.00;68.70
64670;DHT22;51080;51.690;5.174;2022-08-25T03:33:13;20.00;68.30
64670;DHT22;51080;51.690;5.174;2022-08-25T03:38:57;20.00;68.30
64670;DHT22;51080;51.690;5.174;2022-08-25T03:44:40;19.90;68.50
64670;DHT22;51080;51.690;5.174;2022-08-25T03:50:24;19.90;68.20
64670;DHT22;51080;51.690;5.174;2022-08-25T03:56:08;19.80;68.10
64670;DHT22;51080;51.690;5.174;2022-08-25T04:01:53;19.70;68.00
64670;DHT22;51080;51.690;5.174;2022-08-25T04:07:38;19.70;67.90
64670;DHT22;51080;51.690;5.174;2022-08-25T04:13:22;19.60;68.10
64670;DHT22;51080;51.690;5.174;2022-08-25T04:19:07;19.50;68.30
64670;DHT22;51080;51.690;5.174;2022-08-25T04:24:52;19.50;68.20
64670;DHT22;51080;51.690;5.174;2022-08-25T04:30:40;19.50;67.60
64670;DHT22;51080;51.690;5.174;2022-08-25T04:36:25;19.50;67.20
64670;DHT22;51080;51.690;5.174;2022-08-25T04:42:10;19.50;67.00
64670;DHT22;51080;51.690;5.174;2022-08-25T04:47:53;19.40;67.00
64670;DHT22;51080;51.690;5.174;2022-08-25T04:53:38;19.40;67.10
64670;DHT22;51080;51.690;5.174;2022-08-25T04:59:24;19.30;67.30
64670;DHT22;51080;51.690;5.174;2022-08-25T05:05:09;19.30;67.30
64670;DHT22;51080;51.690;5.174;2022-08-25T05:10:57;19.20;67.20
64670;DHT22;51080;51.690;5.174;2022-08-25T05:16:47;19.30;66.50
64670;DHT22;51080;51.690;5.174;2022-08-25T05:22:35;19.40;66.40
64670;DHT22;51080;51.690;5.174;2022-08-25T05:28:23;19.60;66.20
64670;DHT22;51080;51.690;5.174;2022-08-25T05:34:11;19.80;65.40
64670;DHT22;51080;51.690;5.174;2022-08-25T05:40:00;20.00;64.90
64670;DHT22;51080;51.690;5.174;2022-08-25T05:45:47;20.30;64.20
64670;DHT22;51080;51.690;5.174;2022-08-25T05:51:35;20.60;62.60
64670;DHT22;51080;51.690;5.174;2022-08-25T05:57:23;20.90;62.30
64670;DHT22;51080;51.690;5.174;2022-08-25T06:03:10;21.10;61.70
64670;DHT22;51080;51.690;5.174;2022-08-25T06:09:00;21.40;60.80
64670;DHT22;51080;51.690;5.174;2022-08-25T06:14:47;21.60;60.20
64670;DHT22;51080;51.690;5.174;2022-08-25T06:20:35;22.00;59.90
64670;DHT22;51080;51.690;5.174;2022-08-25T06:26:24;22.10;59.30
64670;DHT22;51080;51.690;5.174;2022-08-25T06:32:32;22.10;60.30
64670;DHT22;51080;51.690;5.174;2022-08-25T06:38:35;22.00;60.40
64670;DHT22;51080;51.690;5.174;2022-08-25T06:44:23;21.90;59.60
64670;DHT22;51080;51.690;5.174;2022-08-25T06:50:13;21.90;60.20
64670;DHT22;51080;51.690;5.174;2022-08-25T06:55:58;21.90;60.70
64670;DHT22;51080;51.690;5.174;2022-08-25T07:01:43;21.90;60.10
64670;DHT22;51080;51.690;5.174;2022-08-25T07:07:29;22.00;59.10
64670;DHT22;51080;51.690;5.174;2022-08-25T07:13:14;22.00;59.10
64670;DHT22;51080;51.690;5.174;2022-08-25T07:19:01;22.10;58.50
64670;DHT22;51080;51.690;5.174;2022-08-25T07:24:46;22.20;58.00
64670;DHT22;51080;51.690;5.174;2022-08-25T07:30:31;22.40;57.60
64670;DHT22;51080;51.690;5.174;2022-08-25T07:36:16;22.50;57.20
64670;DHT22;51080;51.690;5.174;2022-08-25T07:42:00;22.70;57.20
64670;DHT22;51080;51.690;5.174;2022-08-25T07:47:44;22.80;58.00
64670;DHT22;51080;51.690;5.174;2022-08-25T07:53:29;22.90;57.00
64670;DHT22;51080;51.690;5.174;2022-08-25T07:59:13;23.10;57.90
64670;DHT22;51080;51.690;5.174;2022-08-25T08:04:58;23.30;57.90
64670;DHT22;51080;51.690;5.174;2022-08-25T08:10:43;23.50;55.80
64670;DHT22;51080;51.690;5.174;2022-08-25T08:16:29;23.80;56.60
64670;DHT22;51080;51.690;5.174;2022-08-25T08:22:39;24.00;56.70
64670;DHT22;51080;51.690;5.174;2022-08-25T08:28:35;24.20;56.30
64670;DHT22;51080;51.690;5.174;2022-08-25T08:34:19;24.50;56.70
64670;DHT22;51080;51.690;5.174;2022-08-25T08:40:05;24.80;55.20
64670;DHT22;51080;51.690;5.174;2022-08-25T08:45:51;25.20;54.60
64670;DHT22;51080;51.690;5.174;2022-08-25T08:51:46;25.60;54.60
64670;DHT22;51080;51.690;5.174;2022-08-25T08:57:38;26.70;52.70
64670;DHT22;51080;51.690;5.174;2022-08-25T09:03:41;30.00;47.20
64670;DHT22;51080;51.690;5.174;2022-08-25T09:09:32;32.20;44.00
64670;DHT22;51080;51.690;5.174;2022-08-25T09:15:39;33.90;40.10
64670;DHT22;51080;51.690;5.174;2022-08-25T09:28:02;36.00;37.60
64670;DHT22;51080;51.690;5.174;2022-08-25T09:33:47;36.40;37.60
64670;DHT22;51080;51.690;5.174;2022-08-25T09:39:33;36.20;37.70
64670;DHT22;51080;51.690;5.174;2022-08-25T09:45:34;36.10;37.40
64670;DHT22;51080;51.690;5.174;2022-08-25T09:51:35;36.30;37.00
64670;DHT22;51080;51.690;5.174;2022-08-25T09:57:34;36.10;38.60
64670;DHT22;51080;51.690;5.174;2022-08-25T10:03:21;36.00;39.30
64670;DHT22;51080;51.690;5.174;2022-08-25T10:09:07;36.00;38.80
64670;DHT22;51080;51.690;5.174;2022-08-25T10:14:53;35.90;38.20
64670;DHT22;51080;51.690;5.174;2022-08-25T10:20:38;35.80;38.80
64670;DHT22;51080;51.690;5.174;2022-08-25T10:38:36;37.60;35.10
64670;DHT22;51080;51.690;5.174;2022-08-25T10:44:38;38.00;33.90
64670;DHT22;51080;51.690;5.174;2022-08-25T10:50:43;36.70;34.00
64670;DHT22;51080;51.690;5.174;2022-08-25T10:56:36;36.20;35.30
64670;DHT22;51080;51.690;5.174;2022-08-25T11:02:42;37.70;32.90
64670;DHT22;51080;51.690;5.174;2022-08-25T11:08:37;40.30;30.50
64670;DHT22;51080;51.690;5.174;2022-08-25T11:14:53;42.00;29.00
64670;DHT22;51080;51.690;5.174;2022-08-25T11:21:10;42.90;26.80
64670;DHT22;51080;51.690;5.174;2022-08-25T11:26:58;44.20;26.20
64670;DHT22;51080;51.690;5.174;2022-08-25T11:32:48;44.90;25.30
64670;DHT22;51080;51.690;5.174;2022-08-25T11:38:51;44.90;26.00
64670;DHT22;51080;51.690;5.174;2022-08-25T11:44:53;45.50;25.10
64670;DHT22;51080;51.690;5.174;2022-08-25T11:51:06;45.80;24.70
64670;DHT22;51080;51.690;5.174;2022-08-25T11:57:02;46.00;24.90
64670;DHT22;51080;51.690;5.174;2022-08-25T12:02:49;46.50;24.30
64670;DHT22;51080;51.690;5.174;2022-08-25T12:08:54;46.80;24.10
64670;DHT22;51080;51.690;5.174;2022-08-25T12:14:44;46.80;24.10
64670;DHT22;51080;51.690;5.174;2022-08-25T12:27:00;47.50;23.20
64670;DHT22;51080;51.690;5.174;2022-08-25T12:39:16;48.70;22.00
64670;DHT22;51080;51.690;5.174;2022-08-25T12:51:17;48.80;21.80
64670;DHT22;51080;51.690;5.174;2022-08-25T12:57:30;49.00;21.90
64670;DHT22;51080;51.690;5.174;2022-08-25T13:15:47;49.30;21.40
64670;DHT22;51080;51.690;5.174;2022-08-25T13:21:40;49.00;21.20
64670;DHT22;51080;51.690;5.174;2022-08-25T13:27:27;49.30;21.10
64670;DHT22;51080;51.690;5.174;2022-08-25T13:33:24;49.20;20.90
64670;DHT22;51080;51.690;5.174;2022-08-25T13:39:13;49.30;21.00
64670;DHT22;51080;51.690;5.174;2022-08-25T13:44:58;47.40;21.70
64670;DHT22;51080;51.690;5.174;2022-08-25T13:50:42;44.40;23.70
64670;DHT22;51080;51.690;5.174;2022-08-25T13:56:31;42.60;24.50
64670;DHT22;51080;51.690;5.174;2022-08-25T14:02:41;41.90;25.20
64670;DHT22;51080;51.690;5.174;2022-08-25T14:08:32;41.10;26.60
64670;DHT22;51080;51.690;5.174;2022-08-25T14:14:30;39.60;27.10
64670;DHT22;51080;51.690;5.174;2022-08-25T14:20:23;40.00;26.50
64670;DHT22;51080;51.690;5.174;2022-08-25T14:26:11;39.00;27.50
64670;DHT22;51080;51.690;5.174;2022-08-25T14:31:59;38.10;28.00
64670;DHT22;51080;51.690;5.174;2022-08-25T14:37:44;38.00;28.80
64670;DHT22;51080;51.690;5.174;2022-08-25T14:43:31;37.30;28.70
64670;DHT22;51080;51.690;5.174;2022-08-25T14:49:20;36.40;30.50
64670;DHT22;51080;51.690;5.174;2022-08-25T14:55:08;38.90;28.00
64670;DHT22;51080;51.690;5.174;2022-08-25T15:00:57;41.50;26.00
64670;DHT22;51080;51.690;5.174;2022-08-25T15:06:44;40.70;26.70
64670;DHT22;51080;51.690;5.174;2022-08-25T15:12:33;38.60;28.60
64670;DHT22;51080;51.690;5.174;2022-08-25T15:18:20;37.10;30.90
64670;DHT22;51080;51.690;5.174;2022-08-25T15:24:09;36.10;32.60
64670;DHT22;51080;51.690;5.174;2022-08-25T15:30:09;35.50;32.50
64670;DHT22;51080;51.690;5.174;2022-08-25T15:35:58;35.20;33.60
64670;DHT22;51080;51.690;5.174;2022-08-25T15:41:44;35.00;34.30
64670;DHT22;51080;51.690;5.174;2022-08-25T15:47:30;35.00;33.60
64670;DHT22;51080;51.690;5.174;2022-08-25T15:53:17;35.20;33.90
64670;DHT22;51080;51.690;5.174;2022-08-25T15:59:05;35.00;35.70
64670;DHT22;51080;51.690;5.174;2022-08-25T16:04:52;35.20;33.40
64670;DHT22;51080;51.690;5.174;2022-08-25T16:10:41;34.90;33.80
64670;DHT22;51080;51.690;5.174;2022-08-25T16:16:30;35.30;34.20
64670;DHT22;51080;51.690;5.174;2022-08-25T16:22:21;34.60;34.90
64670;DHT22;51080;51.690;5.174;2022-08-25T16:28:10;34.00;33.20
64670;DHT22;51080;51.690;5.174;2022-08-25T16:33:58;33.70;36.60
64670;DHT22;51080;51.690;5.174;2022-08-25T16:39:45;33.40;37.00
64670;DHT22;51080;51.690;5.174;2022-08-25T16:45:31;33.20;37.70
64670;DHT22;51080;51.690;5.174;2022-08-25T16:51:20;33.00;37.90
64670;DHT22;51080;51.690;5.174;2022-08-25T16:57:10;32.60;38.30
64670;DHT22;51080;51.690;5.174;2022-08-25T17:03:02;32.10;38.70
64670;DHT22;51080;51.690;5.174;2022-08-25T17:08:50;31.60;39.70
64670;DHT22;51080;51.690;5.174;2022-08-25T17:14:37;31.30;39.80
64670;DHT22;51080;51.690;5.174;2022-08-25T17:20:24;31.20;40.00
64670;DHT22;51080;51.690;5.174;2022-08-25T17:26:13;31.20;41.50
64670;DHT22;51080;51.690;5.174;2022-08-25T17:32:03;31.10;42.40
64670;DHT22;51080;51.690;5.174;2022-08-25T17:37:50;30.80;43.60
64670;DHT22;51080;51.690;5.174;2022-08-25T17:43:39;30.40;44.60
64670;DHT22;51080;51.690;5.174;2022-08-25T17:49:27;30.00;45.90
64670;DHT22;51080;51.690;5.174;2022-08-25T17:55:15;29.60;46.50
64670;DHT22;51080;51.690;5.174;2022-08-25T18:01:03;29.20;46.80
64670;DHT22;51080;51.690;5.174;2022-08-25T18:06:51;28.90;48.10
64670;DHT22;51080;51.690;5.174;2022-08-25T18:12:42;28.50;49.10
64670;DHT22;51080;51.690;5.174;2022-08-25T18:18:30;28.10;51.10
64670;DHT22;51080;51.690;5.174;2022-08-25T18:24:26;27.60;52.30
64670;DHT22;51080;51.690;5.174;2022-08-25T18:30:13;27.20;52.60
64670;DHT22;51080;51.690;5.174;2022-08-25T18:36:01;26.90;53.30
64670;DHT22;51080;51.690;5.174;2022-08-25T18:41:45;26.60;53.70
64670;DHT22;51080;51.690;5.174;2022-08-25T18:47:27;26.40;54.40
64670;DHT22;51080;51.690;5.174;2022-08-25T18:53:11;26.10;53.90
64670;DHT22;51080;51.690;5.174;2022-08-25T18:58:55;25.90;54.10
64670;DHT22;51080;51.690;5.174;2022-08-25T19:04:39;25.70;54.60
64670;DHT22;51080;51.690;5.174;2022-08-25T19:10:25;25.50;55.50
64670;DHT22;51080;51.690;5.174;2022-08-25T19:16:11;25.30;57.00
64670;DHT22;51080;51.690;5.174;2022-08-25T19:21:57;25.20;57.90
64670;DHT22;51080;51.690;5.174;2022-08-25T19:27:41;24.90;59.40
64670;DHT22;51080;51.690;5.174;2022-08-25T19:33:25;24.80;59.70
64670;DHT22;51080;51.690;5.174;2022-08-25T19:39:11;24.60;60.20
64670;DHT22;51080;51.690;5.174;2022-08-25T19:44:55;24.50;60.70
64670;DHT22;51080;51.690;5.174;2022-08-25T19:50:41;24.40;62.10
64670;DHT22;51080;51.690;5.174;2022-08-25T19:56:25;24.30;61.60
64670;DHT22;51080;51.690;5.174;2022-08-25T20:02:16;24.10;61.50
64670;DHT22;51080;51.690;5.174;2022-08-25T20:08:01;23.90;61.50
64670;DHT22;51080;51.690;5.174;2022-08-25T20:13:44;23.80;61.90
64670;DHT22;51080;51.690;5.174;2022-08-25T20:19:28;23.70;62.10
64670;DHT22;51080;51.690;5.174;2022-08-25T20:25:15;23.50;63.80
64670;DHT22;51080;51.690;5.174;2022-08-25T20:31:00;23.40;66.60
64670;DHT22;51080;51.690;5.174;2022-08-25T20:36:44;23.20;65.00
64670;DHT22;51080;51.690;5.174;2022-08-25T20:42:28;23.10;66.40
64670;DHT22;51080;51.690;5.174;2022-08-25T20:48:10;23.00;66.30
64670;DHT22;51080;51.690;5.174;2022-08-25T20:53:54;22.80;66.60
64670;DHT22;51080;51.690;5.174;2022-08-25T20:59:38;22.60;67.20
64670;DHT22;51080;51.690;5.174;2022-08-25T21:05:22;22.50;66.90
64670;DHT22;51080;51.690;5.174;2022-08-25T21:11:06;22.50;67.00
64670;DHT22;51080;51.690;5.174;2022-08-25T21:16:50;22.40;66.90
64670;DHT22;51080;51.690;5.174;2022-08-25T21:22:35;22.30;66.70
64670;DHT22;51080;51.690;5.174;2022-08-25T21:28:20;22.20;66.30
64670;DHT22;51080;51.690;5.174;2022-08-25T21:34:03;22.20;67.20
64670;DHT22;51080;51.690;5.174;2022-08-25T21:39:47;22.10;68.20
64670;DHT22;51080;51.690;5.174;2022-08-25T21:45:38;22.10;67.40
64670;DHT22;51080;51.690;5.174;2022-08-25T21:51:26;22.00;68.00
64670;DHT22;51080;51.690;5.174;2022-08-25T21:57:10;22.10;67.80
64670;DHT22;51080;51.690;5.174;2022-08-25T22:02:54;22.10;68.10
64670;DHT22;51080;51.690;5.174;2022-08-25T22:08:40;22.10;67.50
64670;DHT22;51080;51.690;5.174;2022-08-25T22:14:24;22.00;68.10
64670;DHT22;51080;51.690;5.174;2022-08-25T22:20:09;22.00;67.70
64670;DHT22;51080;51.690;5.174;2022-08-25T22:25:53;21.90;68.70
64670;DHT22;51080;51.690;5.174;2022-08-25T22:31:37;21.90;68.10
64670;DHT22;51080;51.690;5.174;2022-08-25T22:37:20;21.80;67.90
64670;DHT22;51080;51.690;5.174;2022-08-25T22:43:06;21.80;69.20
64670;DHT22;51080;51.690;5.174;2022-08-25T22:48:50;21.80;68.80
64670;DHT22;51080;51.690;5.174;2022-08-25T22:54:35;21.70;69.20
64670;DHT22;51080;51.690;5.174;2022-08-25T23:00:20;21.70;68.70
64670;DHT22;51080;51.690;5.174;2022-08-25T23:06:11;21.70;67.90
64670;DHT22;51080;51.690;5.174;2022-08-25T23:11:55;21.80;68.40
64670;DHT22;51080;51.690;5.174;2022-08-25T23:17:40;21.70;68.00
64670;DHT22;51080;51.690;5.174;2022-08-25T23:23:24;21.80;68.50
64670;DHT22;51080;51.690;5.174;2022-08-25T23:29:10;21.70;68.60
64670;DHT22;51080;51.690;5.174;2022-08-25T23:35:24;21.70;69.30
64670;DHT22;51080;51.690;5.174;2022-08-25T23:41:19;21.60;67.30
64670;DHT22;51080;51.690;5.174;2022-08-25T23:46:57;21.50;68.80
64670;DHT22;51080;51.690;5.174;2022-08-25T23:52:41;21.50;67.90
64670;DHT22;51080;51.690;5.174;2022-08-25T23:58:25;21.60;69.80
